TimeMST,TemperatureF,Dew PointF,Humidity,Sea Level PressureIn,VisibilityMPH,Wind Direction,Wind SpeedMPH,Gust SpeedMPH,PrecipitationIn,Events,Conditions,WindDirDegrees,DateUTC
12:53 AM,12.0,7.0,80,30.04,10.0,Calm,Calm,-,N/A,,Overcast,0,2014-03-02 07:53:00
1:53 AM,12.9,9.0,84,30.05,4.0,SSE,4.6,-,0.00,Snow,Light Snow,160,2014-03-02 08:53:00
2:53 AM,15.1,10.9,84,30.04,10.0,Calm,Calm,-,0.00,,Overcast,0,2014-03-02 09:53:00
3:53 AM,14.0,10.9,88,30.04,10.0,Calm,Calm,-,N/A,,Scattered Clouds,0,2014-03-02 10:53:00
4:53 AM,14.0,10.9,88,30.06,10.0,South,4.6,-,0.00,,Partly Cloudy,170,2014-03-02 11:53:00
5:53 AM,24.1,21.9,91,30.02,10.0,Calm,Calm,-,N/A,,Mostly Cloudy,0,2014-03-02 12:53:00
6:53 AM,25.0,21.0,85,30.04,10.0,Calm,Calm,-,N/A,,Overcast,0,2014-03-02 13:53:00
7:53 AM,30.9,26.1,82,30.03,10.0,WSW,11.5,20.7,N/A,,Overcast,250,2014-03-02 14:53:00
8:03 AM,30.2,26.6,86,29.91,10.0,West,10.4,-,N/A,,Overcast,260,2014-03-02 15:03:00
8:53 AM,32.0,26.1,79,30.07,10.0,West,11.5,-,N/A,,Overcast,260,2014-03-02 15:53:00
9:53 AM,33.1,27.0,78,30.07,10.0,West,13.8,-,N/A,,Overcast,270,2014-03-02 16:53:00
10:53 AM,34.0,28.0,79,30.09,10.0,West,9.2,-,N/A,,Overcast,270,2014-03-02 17:53:00
11:42 AM,35.6,28.4,75,29.98,10.0,West,10.4,18.4,N/A,,Mostly Cloudy,270,2014-03-02 18:42:00
11:53 AM,37.0,28.9,73,30.09,10.0,West,11.5,17.3,N/A,,Mostly Cloudy,280,2014-03-02 18:53:00
12:53 PM,39.0,30.0,70,30.04,10.0,West,17.3,20.7,N/A,,Clear,260,2014-03-02 19:53:00
1:53 PM,41.0,28.9,62,30.02,10.0,WSW,18.4,-,N/A,,Clear,250,2014-03-02 20:53:00
2:53 PM,39.9,26.1,58,30.00,10.0,West,15.0,-,N/A,,Clear,260,2014-03-02 21:53:00
3:53 PM,41.0,25.0,53,30.01,10.0,West,13.8,-,N/A,,Mostly Cloudy,260,2014-03-02 22:53:00
4:53 PM,39.9,25.0,55,30.04,10.0,West,13.8,-,N/A,,Mostly Cloudy,260,2014-03-02 23:53:00
5:53 PM,36.0,26.1,67,30.02,10.0,WNW,9.2,-,N/A,,Partly Cloudy,290,2014-03-03 00:53:00
6:53 PM,34.0,25.0,70,30.04,10.0,WSW,8.1,-,N/A,,Clear,240,2014-03-03 01:53:00
7:53 PM,33.1,27.0,78,30.04,10.0,WSW,11.5,-,N/A,,Clear,250,2014-03-03 02:53:00
8:53 PM,33.1,28.0,82,30.04,10.0,WSW,13.8,-,N/A,,Clear,250,2014-03-03 03:53:00
9:53 PM,32.0,27.0,82,30.04,10.0,SW,6.9,-,N/A,,Clear,220,2014-03-03 04:53:00
10:53 PM,32.0,27.0,82,30.03,10.0,WSW,9.2,-,N/A,,Clear,250,2014-03-03 05:53:00
11:53 PM,33.1,27.0,78,29.99,10.0,WSW,11.5,-,N/A,,Clear,250,2014-03-03 06:53:00